createdAt,value
2023-03-29T00:02:29.422Z,3.50
2023-03-29T00:04:56.419Z,3.53
2023-03-29T00:07:25.185Z,3.43
2023-03-29T00:09:52.273Z,3.10
2023-03-29T00:12:18.593Z,3.27
2023-03-29T00:14:45.045Z,3.50
2023-03-29T00:17:12.137Z,3.40
2023-03-29T00:19:38.471Z,2.77
2023-03-29T00:22:05.247Z,2.90
2023-03-29T00:24:31.383Z,3.10
2023-03-29T00:26:57.714Z,2.80
2023-03-29T00:29:23.945Z,3.27
2023-03-29T00:31:53.056Z,2.87
2023-03-29T00:34:23.059Z,3.00
2023-03-29T00:36:50.114Z,3.10
2023-03-29T00:39:16.638Z,2.50
2023-03-29T00:41:44.572Z,3.00
2023-03-29T00:44:44.059Z,2.83
2023-03-29T00:47:10.273Z,3.10
2023-03-29T00:49:37.167Z,3.00
2023-03-29T00:52:03.533Z,3.07
2023-03-29T00:54:29.799Z,3.13
2023-03-29T00:56:56.094Z,3.33
2023-03-29T00:59:25.056Z,3.50
2023-03-29T01:01:53.939Z,2.67
2023-03-29T01:04:23.538Z,3.33
2023-03-29T01:06:54.245Z,3.30
2023-03-29T01:09:21.820Z,3.53
2023-03-29T01:11:52.393Z,3.33
2023-03-29T01:14:22.209Z,3.00
2023-03-29T01:16:48.598Z,3.23
2023-03-29T01:19:19.213Z,2.90
2023-03-29T01:21:48.593Z,3.27
2023-03-29T01:24:46.344Z,3.23
2023-03-29T01:27:15.491Z,3.00
2023-03-29T01:29:45.004Z,3.57
2023-03-29T01:32:14.231Z,3.07
2023-03-29T01:34:43.237Z,3.03
2023-03-29T01:37:14.848Z,3.00
2023-03-29T01:39:41.211Z,3.13
2023-03-29T01:42:15.491Z,2.80
2023-03-29T01:44:47.569Z,2.87
2023-03-29T01:47:19.669Z,2.97
2023-03-29T01:49:53.630Z,2.73
2023-03-29T01:52:22.878Z,2.73
2023-03-29T01:54:52.617Z,2.40
2023-03-29T01:57:19.459Z,2.90
2023-03-29T01:59:47.176Z,2.60
2023-03-29T02:02:15.997Z,2.40
2023-03-29T02:04:47.325Z,2.70
2023-03-29T02:07:15.264Z,3.07
2023-03-29T02:09:44.491Z,3.03
2023-03-29T02:12:11.346Z,2.67
2023-03-29T02:14:38.116Z,3.20
2023-03-29T02:17:16.324Z,2.50
2023-03-29T02:19:45.317Z,2.93
2023-03-29T02:22:13.550Z,2.77
2023-03-29T02:24:41.608Z,3.30
2023-03-29T02:27:07.774Z,2.93
2023-03-29T02:29:34.027Z,3.00
2023-03-29T02:32:07.605Z,2.93
2023-03-29T02:34:36.787Z,3.30
2023-03-29T02:37:06.219Z,2.90
2023-03-29T02:39:33.957Z,3.13
2023-03-29T02:42:00.873Z,3.20
2023-03-29T02:44:28.744Z,3.30
2023-03-29T02:46:57.208Z,3.13
2023-03-29T02:49:23.657Z,2.97
2023-03-29T02:51:53.647Z,3.27
2023-03-29T02:54:22.333Z,3.00
2023-03-29T02:56:50.091Z,3.30
2023-03-29T02:59:18.529Z,3.00
2023-03-29T03:01:45.057Z,3.23
2023-03-29T03:04:12.362Z,3.33
2023-03-29T03:06:39.272Z,3.27
2023-03-29T03:09:06.608Z,3.70
2023-03-29T03:11:33.240Z,3.40
2023-03-29T03:13:59.576Z,3.63
2023-03-29T03:16:26.424Z,3.23
2023-03-29T03:18:54.167Z,3.20
2023-03-29T03:21:20.503Z,3.63
2023-03-29T03:23:47.718Z,3.50
2023-03-29T03:26:15.610Z,3.50
2023-03-29T03:28:42.445Z,3.40
2023-03-29T03:31:08.652Z,3.47
2023-03-29T03:33:35.022Z,3.00
2023-03-29T03:36:04.425Z,3.43
2023-03-29T03:38:30.790Z,3.33
2023-03-29T03:40:57.457Z,3.60
2023-03-29T03:43:24.398Z,3.37
2023-03-29T03:45:50.754Z,3.90
2023-03-29T03:48:17.674Z,3.57
2023-03-29T03:50:48.181Z,3.50
2023-03-29T03:53:14.369Z,3.50
2023-03-29T03:55:40.576Z,3.83
2023-03-29T03:58:07.369Z,3.50
2023-03-29T04:00:34.280Z,3.70
2023-03-29T04:03:01.552Z,4.03
2023-03-29T04:05:27.928Z,3.80
2023-03-29T04:07:55.557Z,3.67
2023-03-29T04:10:21.888Z,3.80
2023-03-29T04:12:48.254Z,3.80
2023-03-29T04:15:16.973Z,3.47
2023-03-29T04:17:46.834Z,3.57
2023-03-29T04:20:14.090Z,3.70
2023-03-29T04:22:40.459Z,3.77
2023-03-29T04:25:08.005Z,4.03
2023-03-29T04:27:34.228Z,3.87
2023-03-29T04:30:00.799Z,3.97
2023-03-29T04:32:27.434Z,3.53
2023-03-29T04:34:54.290Z,3.77
2023-03-29T04:37:21.605Z,4.00
2023-03-29T04:39:48.560Z,3.73
2023-03-29T04:42:15.325Z,4.13
2023-03-29T04:44:42.860Z,3.67
2023-03-29T04:47:11.160Z,4.00
2023-03-29T04:49:37.345Z,4.40
2023-03-29T04:52:04.614Z,4.23
2023-03-29T04:54:30.929Z,3.63
2023-03-29T04:56:57.254Z,3.93
2023-03-29T04:59:23.498Z,4.37
2023-03-29T05:01:49.812Z,3.97
2023-03-29T05:04:17.550Z,4.20
2023-03-29T05:06:43.814Z,4.50
2023-03-29T05:09:10.659Z,4.47
2023-03-29T05:11:37.545Z,4.00
2023-03-29T05:14:06.482Z,4.43
2023-03-29T05:16:33.830Z,4.50
2023-03-29T05:19:00.546Z,4.67
2023-03-29T05:21:27.826Z,4.27
2023-03-29T05:23:54.366Z,4.50
2023-03-29T05:26:21.706Z,4.23
2023-03-29T05:28:48.015Z,4.53
2023-03-29T05:31:16.829Z,4.63
2023-03-29T05:33:43.454Z,4.30
2023-03-29T05:36:12.736Z,4.67
2023-03-29T05:38:39.418Z,4.20
2023-03-29T05:41:06.171Z,4.17
2023-03-29T05:43:33.268Z,4.33
2023-03-29T05:45:59.537Z,4.30
2023-03-29T05:48:26.499Z,4.10
2023-03-29T05:50:54.229Z,3.80
2023-03-29T05:53:21.865Z,4.73
2023-03-29T05:55:48.880Z,3.97
2023-03-29T05:58:17.227Z,4.07
2023-03-29T06:00:44.543Z,3.53
2023-03-29T06:05:44.434Z,4.00
2023-03-29T06:08:10.730Z,3.10
2023-03-29T06:10:37.084Z,3.33
2023-03-29T06:13:03.497Z,3.37
2023-03-29T06:15:29.620Z,3.13
2023-03-29T06:17:57.734Z,3.67
2023-03-29T06:20:23.899Z,3.47
2023-03-29T06:22:50.125Z,3.43
2023-03-29T06:25:16.774Z,3.33
2023-03-29T06:27:43.044Z,3.40
2023-03-29T06:30:11.351Z,3.10
2023-03-29T06:32:37.558Z,3.30
2023-03-29T06:35:05.224Z,3.37
2023-03-29T06:37:32.265Z,2.93
2023-03-29T06:39:58.980Z,3.20
2023-03-29T06:42:25.401Z,3.50
2023-03-29T06:44:51.702Z,3.03
2023-03-29T06:47:17.944Z,3.30
2023-03-29T06:49:44.300Z,2.90
2023-03-29T06:52:11.430Z,3.20
2023-03-29T06:54:38.100Z,3.80
2023-03-29T06:57:04.890Z,3.30
2023-03-29T06:59:31.149Z,3.47
2023-03-29T07:01:57.686Z,3.20
2023-03-29T07:04:24.094Z,3.67
2023-03-29T07:07:00.535Z,3.20
2023-03-29T07:09:29.289Z,3.33
2023-03-29T07:11:55.609Z,3.20
2023-03-29T07:14:21.722Z,3.33
2023-03-29T07:16:48.906Z,3.40
2023-03-29T07:19:15.144Z,2.90
2023-03-29T07:21:41.385Z,3.00
2023-03-29T07:24:07.992Z,3.20
2023-03-29T07:26:34.880Z,3.27
2023-03-29T07:29:01.149Z,3.17
2023-03-29T07:31:28.553Z,3.37
2023-03-29T07:33:55.263Z,3.00
2023-03-29T07:36:21.710Z,3.30
2023-03-29T07:38:47.933Z,3.30
2023-03-29T07:41:14.275Z,3.43
2023-03-29T07:43:41.561Z,3.00
2023-03-29T07:46:09.329Z,3.20
2023-03-29T07:48:36.167Z,2.93
2023-03-29T07:51:03.071Z,3.33
2023-03-29T07:53:29.458Z,3.47
2023-03-29T07:55:56.147Z,3.37
2023-03-29T07:58:22.346Z,3.53
2023-03-29T08:00:49.874Z,3.23
2023-03-29T08:03:16.324Z,3.47
2023-03-29T08:05:42.823Z,3.73
2023-03-29T08:08:10.315Z,3.40
2023-03-29T08:10:38.302Z,3.90
2023-03-29T08:13:06.472Z,3.47
2023-03-29T08:15:32.984Z,3.30
2023-03-29T08:17:59.879Z,3.33
2023-03-29T08:20:26.714Z,3.10
2023-03-29T08:22:54.066Z,2.90
2023-03-29T08:25:20.949Z,2.80
2023-03-29T08:27:47.315Z,3.00
2023-03-29T08:30:15.374Z,3.43
2023-03-29T08:32:42.036Z,3.00
2023-03-29T08:35:09.792Z,2.83
2023-03-29T08:37:36.754Z,3.20
2023-03-29T08:40:04.758Z,3.20
2023-03-29T08:42:45.622Z,3.20
2023-03-29T08:45:16.430Z,3.40
2023-03-29T08:47:47.522Z,3.57
2023-03-29T08:50:15.029Z,3.40
2023-03-29T08:52:44.134Z,3.70
2023-03-29T08:55:15.553Z,3.57
2023-03-29T08:57:45.265Z,3.30
2023-03-29T09:00:17.679Z,3.47
2023-03-29T09:02:45.119Z,3.53
2023-03-29T09:05:20.525Z,3.47
2023-03-29T09:07:47.314Z,3.73
2023-03-29T09:10:15.782Z,3.60
2023-03-29T09:12:57.029Z,3.13
2023-03-29T09:15:28.347Z,3.63
2023-03-29T09:18:01.870Z,3.33
2023-03-29T09:20:38.270Z,3.50
2023-03-29T09:23:17.284Z,3.97
2023-03-29T09:25:54.170Z,3.63
2023-03-29T09:28:28.792Z,3.50
2023-03-29T09:30:57.820Z,3.67
2023-03-29T09:33:26.273Z,3.87
2023-03-29T09:35:56.623Z,3.33
2023-03-29T09:38:23.436Z,3.40
2023-03-29T09:40:51.614Z,3.80
2023-03-29T09:43:26.395Z,3.73
2023-03-29T09:45:55.579Z,3.63
2023-03-29T09:48:22.286Z,3.30
2023-03-29T09:50:50.506Z,3.90
2023-03-29T09:53:18.465Z,3.60
2023-03-29T09:55:47.164Z,3.93
2023-03-29T09:58:16.147Z,3.80
2023-03-29T10:00:42.432Z,4.27
2023-03-29T10:03:10.613Z,4.17
2023-03-29T10:05:37.596Z,3.50
2023-03-29T10:08:14.508Z,3.87
2023-03-29T10:10:41.733Z,3.70
2023-03-29T10:13:13.409Z,4.47
2023-03-29T10:15:39.738Z,4.20
2023-03-29T10:18:10.017Z,3.70
2023-03-29T10:20:39.082Z,3.83
2023-03-29T10:23:06.211Z,4.60
2023-03-29T10:25:33.972Z,4.50
2023-03-29T10:28:05.726Z,3.97
2023-03-29T10:30:36.430Z,3.80
2023-03-29T10:33:03.312Z,4.30
2023-03-29T10:35:32.525Z,4.43
2023-03-29T10:37:59.744Z,3.90
2023-03-29T10:40:27.707Z,4.03
2023-03-29T10:42:58.400Z,4.00
2023-03-29T10:45:28.368Z,4.30
2023-03-29T10:47:55.690Z,4.10
2023-03-29T10:50:21.962Z,3.83
2023-03-29T10:52:49.427Z,3.80
2023-03-29T10:55:15.913Z,3.97
2023-03-29T10:57:52.193Z,3.80
2023-03-29T11:00:23.683Z,4.10
2023-03-29T11:03:11.617Z,3.60
2023-03-29T11:05:44.071Z,4.00
2023-03-29T11:08:43.480Z,3.67
2023-03-29T11:11:22.544Z,4.00
2023-03-29T11:13:54.328Z,3.67
2023-03-29T11:16:26.841Z,3.40
2023-03-29T11:19:06.582Z,3.60
2023-03-29T11:21:37.425Z,3.97
2023-03-29T11:24:22.598Z,3.80
2023-03-29T11:27:01.693Z,3.80
2023-03-29T11:29:30.726Z,3.47
2023-03-29T11:32:00.328Z,3.37
2023-03-29T11:34:30.850Z,3.60
2023-03-29T11:37:00.882Z,3.93
2023-03-29T11:39:30.494Z,3.93
2023-03-29T11:42:02.893Z,3.57
2023-03-29T11:44:30.623Z,3.60
2023-03-29T11:47:00.266Z,3.63
2023-03-29T11:49:30.466Z,3.53
2023-03-29T11:52:00.517Z,3.80
2023-03-29T11:54:30.393Z,3.73
2023-03-29T11:57:00.990Z,4.50
2023-03-29T11:59:30.937Z,3.60
2023-03-29T12:02:01.944Z,3.60
2023-03-29T12:04:32.192Z,3.80
2023-03-29T12:07:08.217Z,3.83
2023-03-29T12:09:36.889Z,3.70
2023-03-29T12:12:07.377Z,3.60
2023-03-29T12:14:42.925Z,3.67
2023-03-29T12:17:12.285Z,3.47
2023-03-29T12:19:43.939Z,3.63
2023-03-29T12:22:10.230Z,4.10
2023-03-29T12:24:39.860Z,4.10
2023-03-29T12:27:20.481Z,4.10
2023-03-29T12:30:01.800Z,3.77
2023-03-29T12:32:42.197Z,3.63
2023-03-29T12:35:22.385Z,3.97
2023-03-29T12:37:55.822Z,3.80
2023-03-29T12:40:24.891Z,4.47
2023-03-29T12:42:52.727Z,3.80
2023-03-29T12:45:20.733Z,4.10
2023-03-29T12:47:49.134Z,3.50
2023-03-29T12:50:23.832Z,4.33
2023-03-29T12:52:50.207Z,3.73
2023-03-29T12:55:22.358Z,3.87
2023-03-29T12:58:00.531Z,3.50
2023-03-29T13:00:32.428Z,3.57
2023-03-29T13:03:01.217Z,3.13
2023-03-29T13:05:31.457Z,3.13
2023-03-29T13:07:57.757Z,3.43
2023-03-29T13:10:36.952Z,2.73
2023-03-29T13:13:14.720Z,2.40
2023-03-29T13:15:42.681Z,2.27
2023-03-29T13:18:21.554Z,2.20
2023-03-29T13:20:56.016Z,2.50
2023-03-29T13:23:30.952Z,2.17
2023-03-29T13:26:10.686Z,2.40
2023-03-29T13:28:44.132Z,2.37
2023-03-29T13:31:21.278Z,2.20
2023-03-29T13:33:55.120Z,2.20
2023-03-29T13:36:33.196Z,2.37
2023-03-29T13:39:02.392Z,1.87
2023-03-29T13:41:33.040Z,2.10
2023-03-29T13:43:59.490Z,2.00
2023-03-29T13:46:36.038Z,1.90
2023-03-29T13:49:06.171Z,2.13
2023-03-29T13:51:37.200Z,2.27
2023-03-29T13:54:10.689Z,1.90
2023-03-29T13:56:39.926Z,1.70
2023-03-29T13:59:12.102Z,1.63
2023-03-29T14:01:43.097Z,1.63
2023-03-29T14:04:13.791Z,1.50
2023-03-29T14:06:42.396Z,1.93
2023-03-29T14:09:10.409Z,1.40
2023-03-29T14:11:36.704Z,1.50
2023-03-29T14:14:04.618Z,1.60
2023-03-29T14:16:32.673Z,1.70
2023-03-29T14:18:59.845Z,1.37
2023-03-29T14:21:26.149Z,1.60
2023-03-29T14:23:56.682Z,1.70
2023-03-29T14:26:24.048Z,1.67
2023-03-29T14:28:52.090Z,1.60
2023-03-29T14:31:19.402Z,1.57
2023-03-29T14:33:46.188Z,2.00
2023-03-29T14:36:16.215Z,2.17
2023-03-29T14:38:43.885Z,1.83
2023-03-29T14:41:10.839Z,1.70
2023-03-29T14:43:37.479Z,1.80
2023-03-29T14:46:05.823Z,1.80
2023-03-29T14:48:32.672Z,1.87
2023-03-29T14:50:59.118Z,1.97
2023-03-29T14:53:28.052Z,2.00
2023-03-29T14:55:55.300Z,1.60
2023-03-29T14:58:23.977Z,1.77
2023-03-29T15:00:51.583Z,1.57
2023-03-29T15:03:21.736Z,1.53
2023-03-29T15:05:50.643Z,1.87
2023-03-29T15:08:19.083Z,1.40
2023-03-29T15:10:45.356Z,2.00
2023-03-29T15:13:16.956Z,1.60
2023-03-29T15:15:43.937Z,1.87
2023-03-29T15:18:15.049Z,1.70
2023-03-29T15:20:41.648Z,1.90
2023-03-29T15:23:20.031Z,1.83
2023-03-29T15:25:48.463Z,1.80
2023-03-29T15:28:25.374Z,1.77
2023-03-29T15:31:07.400Z,1.87
2023-03-29T15:33:38.402Z,1.70
2023-03-29T15:36:06.914Z,1.60
2023-03-29T15:38:43.309Z,1.90
2023-03-29T15:41:10.737Z,1.67
2023-03-29T15:43:37.281Z,2.50
2023-03-29T15:46:04.606Z,1.77
2023-03-29T15:48:32.674Z,1.77
2023-03-29T15:51:02.008Z,1.97
2023-03-29T15:53:30.210Z,1.60
2023-03-29T15:56:00.321Z,1.80
2023-03-29T15:58:28.132Z,1.70
2023-03-29T16:00:58.329Z,1.80
2023-03-29T16:03:26.777Z,1.90
2023-03-29T16:05:56.025Z,1.67
2023-03-29T16:08:23.469Z,2.07
2023-03-29T16:10:49.738Z,2.20
2023-03-29T16:13:15.973Z,2.10
2023-03-29T16:15:42.492Z,2.00
2023-03-29T16:18:09.156Z,2.00
2023-03-29T16:20:37.415Z,2.07
2023-03-29T16:23:08.388Z,2.07
2023-03-29T16:25:36.487Z,1.90
2023-03-29T16:28:04.043Z,2.13
2023-03-29T16:30:30.743Z,2.50
2023-03-29T16:32:56.988Z,2.30
2023-03-29T16:35:26.339Z,2.50
2023-03-29T16:37:53.738Z,2.20
2023-03-29T16:40:21.285Z,2.30
2023-03-29T16:42:47.498Z,2.00
2023-03-29T16:45:14.150Z,2.20
2023-03-29T16:47:43.510Z,1.90
2023-03-29T16:50:10.828Z,2.10
2023-03-29T16:52:37.364Z,2.53
2023-03-29T16:55:05.986Z,2.40
2023-03-29T16:57:32.723Z,2.00
2023-03-29T17:00:04.634Z,2.03
2023-03-29T17:02:30.834Z,1.80
2023-03-29T17:04:57.128Z,2.10
2023-03-29T17:07:23.485Z,2.03
2023-03-29T17:09:50.032Z,2.03
2023-03-29T17:12:17.357Z,1.93
2023-03-29T17:14:43.648Z,2.70
2023-03-29T17:17:09.940Z,2.37
2023-03-29T17:19:36.236Z,2.47
2023-03-29T17:22:02.420Z,2.13
2023-03-29T17:24:28.848Z,2.50
2023-03-29T17:26:55.743Z,2.00
2023-03-29T17:29:22.571Z,2.57
2023-03-29T17:31:48.847Z,2.23
2023-03-29T17:34:15.179Z,2.33
2023-03-29T17:36:41.544Z,2.43
2023-03-29T17:39:08.706Z,2.63
2023-03-29T17:41:35.128Z,2.37
2023-03-29T17:44:01.515Z,2.50
2023-03-29T17:46:30.901Z,3.10
2023-03-29T17:48:58.397Z,2.70
2023-03-29T17:51:25.115Z,2.90
2023-03-29T17:53:52.336Z,2.77
2023-03-29T17:56:20.248Z,2.27
2023-03-29T17:58:48.245Z,2.60
2023-03-29T18:01:18.975Z,2.63
2023-03-29T18:03:46.911Z,2.80
2023-03-29T18:06:13.716Z,2.30
2023-03-29T18:08:40.953Z,2.83
2023-03-29T18:11:10.203Z,2.67
2023-03-29T18:13:36.425Z,2.50
2023-03-29T18:16:03.478Z,2.90
2023-03-29T18:18:29.840Z,3.30
2023-03-29T18:20:56.634Z,2.70
2023-03-29T18:23:23.043Z,2.60
2023-03-29T18:25:49.434Z,3.07
2023-03-29T18:28:15.717Z,2.87
2023-03-29T18:30:42.222Z,2.80
2023-03-29T18:33:08.744Z,3.37
2023-03-29T18:35:35.074Z,2.70
2023-03-29T18:38:02.653Z,2.67
2023-03-29T18:40:29.615Z,3.37
2023-03-29T18:42:55.892Z,2.77
2023-03-29T18:45:22.094Z,2.50
2023-03-29T18:47:49.696Z,2.77
2023-03-29T18:50:15.964Z,2.70
2023-03-29T18:52:42.125Z,2.10
2023-03-29T18:55:09.647Z,2.73
2023-03-29T18:57:36.088Z,2.30
2023-03-29T19:00:09.689Z,2.27
2023-03-29T19:02:36.335Z,2.10
2023-03-29T19:05:02.825Z,2.20
2023-03-29T19:07:29.079Z,2.03
2023-03-29T19:09:55.277Z,2.17
2023-03-29T19:12:22.217Z,2.50
2023-03-29T19:14:48.402Z,2.03
2023-03-29T19:17:14.655Z,2.20
2023-03-29T19:19:41.035Z,2.20
2023-03-29T19:22:07.470Z,2.30
2023-03-29T19:24:33.704Z,2.40
2023-03-29T19:27:00.999Z,2.33
2023-03-29T19:29:27.879Z,2.13
2023-03-29T19:31:56.027Z,2.10
2023-03-29T19:34:23.467Z,2.53
2023-03-29T19:36:49.638Z,2.63
2023-03-29T19:39:15.975Z,2.30
2023-03-29T19:41:42.241Z,2.30
2023-03-29T19:44:08.403Z,2.63
2023-03-29T19:46:35.272Z,2.60
2023-03-29T19:49:03.692Z,2.33
2023-03-29T19:51:31.286Z,2.83
2023-03-29T19:53:57.560Z,2.43
2023-03-29T19:56:25.239Z,2.50
2023-03-29T19:58:52.094Z,2.60
2023-03-29T20:01:19.991Z,2.60
2023-03-29T20:03:48.016Z,2.37
2023-03-29T20:06:14.766Z,2.60
2023-03-29T20:08:40.969Z,2.80
2023-03-29T20:11:09.269Z,2.53
2023-03-29T20:13:38.970Z,2.77
2023-03-29T20:16:06.365Z,2.53
2023-03-29T20:18:32.578Z,2.40
2023-03-29T20:21:00.909Z,2.87
2023-03-29T20:23:27.374Z,2.93
2023-03-29T20:25:54.110Z,2.60
2023-03-29T20:28:20.436Z,2.70
2023-03-29T20:30:50.290Z,2.70
2023-03-29T20:33:16.710Z,2.43
2023-03-29T20:35:44.010Z,2.63
2023-03-29T20:38:11.176Z,2.60
2023-03-29T20:40:37.905Z,2.77
2023-03-29T20:43:04.340Z,2.57
2023-03-29T20:45:35.105Z,3.97
2023-03-29T20:48:09.370Z,2.83
2023-03-29T20:50:37.513Z,2.47
2023-03-29T20:53:05.476Z,2.80
2023-03-29T20:55:32.838Z,2.90
2023-03-29T20:57:59.767Z,3.07
2023-03-29T21:00:26.840Z,2.87
2023-03-29T21:02:54.438Z,3.13
2023-03-29T21:05:20.725Z,2.97
2023-03-29T21:07:47.212Z,3.10
2023-03-29T21:10:13.616Z,3.00
2023-03-29T21:12:41.102Z,3.47
2023-03-29T21:15:08.670Z,2.93
2023-03-29T21:17:35.190Z,3.33
2023-03-29T21:20:06.760Z,3.10
2023-03-29T21:22:34.380Z,3.03
2023-03-29T21:25:01.090Z,3.00
2023-03-29T21:27:27.328Z,3.20
2023-03-29T21:29:54.158Z,3.20
2023-03-29T21:32:20.459Z,3.00
2023-03-29T21:34:46.635Z,2.80
2023-03-29T21:37:14.716Z,2.63
2023-03-29T21:39:41.444Z,3.03
2023-03-29T21:42:07.636Z,3.00
2023-03-29T21:44:34.532Z,2.90
2023-03-29T21:47:01.538Z,2.87
2023-03-29T21:49:27.862Z,2.50
2023-03-29T21:51:54.226Z,2.57
2023-03-29T21:54:20.616Z,2.87
2023-03-29T21:56:46.959Z,2.50
2023-03-29T21:59:13.224Z,2.57
2023-03-29T22:01:39.845Z,2.50
2023-03-29T22:04:06.799Z,2.80
2023-03-29T22:06:33.030Z,2.63
2023-03-29T22:08:59.993Z,2.40
2023-03-29T22:11:27.765Z,2.67
2023-03-29T22:13:54.635Z,2.93
2023-03-29T22:16:21.332Z,2.60
2023-03-29T22:18:48.823Z,2.70
2023-03-29T22:21:17.789Z,2.33
2023-03-29T22:23:45.135Z,2.67
2023-03-29T22:26:13.832Z,2.43
2023-03-29T22:28:41.198Z,2.57
2023-03-29T22:31:08.732Z,2.70
2023-03-29T22:33:36.139Z,2.47
2023-03-29T22:36:10.681Z,2.90
2023-03-29T22:38:37.444Z,2.90
2023-03-29T22:41:03.685Z,2.57
2023-03-29T22:43:30.292Z,2.83
2023-03-29T22:45:56.465Z,2.30
2023-03-29T22:48:22.707Z,2.90
2023-03-29T22:50:48.974Z,3.10
2023-03-29T22:53:15.267Z,2.43
2023-03-29T22:55:43.256Z,2.63
2023-03-29T22:58:09.446Z,2.73
2023-03-29T23:00:35.647Z,2.70
2023-03-29T23:03:01.947Z,3.00
2023-03-29T23:05:28.330Z,3.00
2023-03-29T23:07:54.999Z,2.57
2023-03-29T23:10:21.463Z,2.97
2023-03-29T23:12:48.876Z,2.60
2023-03-29T23:15:16.181Z,3.00
2023-03-29T23:17:43.391Z,2.37
2023-03-29T23:20:10.572Z,2.70
2023-03-29T23:22:38.816Z,2.80
2023-03-29T23:25:05.923Z,3.40
2023-03-29T23:27:32.343Z,2.80
2023-03-29T23:30:00.779Z,2.60
2023-03-29T23:32:27.697Z,2.70
2023-03-29T23:34:53.869Z,2.77
2023-03-29T23:37:20.048Z,2.90
2023-03-29T23:39:46.249Z,2.60
2023-03-29T23:42:12.513Z,3.03
2023-03-29T23:44:38.791Z,2.63
2023-03-29T23:47:06.425Z,2.93
2023-03-29T23:49:32.652Z,3.10
2023-03-29T23:51:59.482Z,2.70
2023-03-29T23:54:25.911Z,2.57
2023-03-29T23:56:52.172Z,2.90
2023-03-29T23:59:18.422Z,3.30
